createdAt,value
2022-11-30T00:01:25.516Z,14.23
2022-11-30T00:03:55.341Z,15.43
2022-11-30T00:06:24.433Z,16.30
2022-11-30T00:08:54.657Z,15.60
2022-11-30T00:11:23.459Z,16.40
2022-11-30T00:13:51.539Z,15.47
2022-11-30T00:16:20.834Z,16.23
2022-11-30T00:18:48.734Z,16.60
2022-11-30T00:21:17.013Z,14.93
2022-11-30T00:23:46.847Z,15.63
2022-11-30T00:26:16.831Z,16.97
2022-11-30T00:28:45.670Z,16.57
2022-11-30T00:31:15.385Z,14.43
2022-11-30T00:33:45.279Z,14.10
2022-11-30T00:36:15.182Z,15.73
2022-11-30T00:38:43.455Z,16.87
2022-11-30T00:41:11.680Z,17.07
2022-11-30T00:43:39.535Z,17.77
2022-11-30T00:46:09.163Z,20.50
2022-11-30T00:48:37.423Z,18.93
2022-11-30T00:51:07.284Z,18.63
2022-11-30T00:53:35.278Z,19.80
2022-11-30T00:56:03.104Z,20.90
2022-11-30T00:58:30.938Z,20.40
2022-11-30T01:00:58.815Z,22.50
2022-11-30T01:03:26.732Z,20.63
2022-11-30T01:05:54.552Z,23.13
2022-11-30T01:08:25.547Z,20.93
2022-11-30T01:10:57.658Z,21.10
2022-11-30T01:13:25.765Z,19.90
2022-11-30T01:15:53.620Z,22.83
2022-11-30T01:18:21.455Z,19.87
2022-11-30T01:20:49.269Z,20.33
2022-11-30T01:23:17.151Z,19.93
2022-11-30T01:25:54.862Z,20.80
2022-11-30T01:28:22.692Z,20.73
2022-11-30T01:30:57.950Z,21.80
2022-11-30T01:33:25.906Z,21.20
2022-11-30T01:36:00.914Z,22.17
2022-11-30T01:38:32.086Z,21.47
2022-11-30T01:41:01.367Z,21.60
2022-11-30T01:43:39.930Z,21.00
2022-11-30T01:46:22.457Z,22.90
2022-11-30T01:48:56.134Z,20.97
2022-11-30T01:51:24.164Z,20.60
2022-11-30T01:53:52.474Z,18.50
2022-11-30T01:56:21.755Z,19.30
2022-11-30T01:58:49.899Z,19.17
2022-11-30T02:01:17.817Z,20.40
2022-11-30T02:03:54.002Z,20.93
2022-11-30T02:06:23.463Z,19.93
2022-11-30T02:08:51.677Z,20.50
2022-11-30T02:11:21.204Z,19.70
2022-11-30T02:14:16.183Z,19.60
2022-11-30T02:16:54.548Z,20.27
2022-11-30T02:19:51.284Z,18.00
2022-11-30T02:22:34.167Z,20.20
2022-11-30T02:25:11.203Z,19.53
2022-11-30T02:27:58.946Z,19.17
2022-11-30T02:30:28.946Z,19.50
2022-11-30T02:33:00.662Z,17.50
2022-11-30T02:35:31.415Z,17.93
2022-11-30T02:38:01.565Z,18.43
2022-11-30T02:40:29.618Z,17.13
2022-11-30T02:43:00.096Z,18.60
2022-11-30T02:45:34.380Z,17.10
2022-11-30T02:48:09.029Z,17.47
2022-11-30T02:50:41.886Z,15.33
2022-11-30T02:53:10.776Z,13.77
2022-11-30T02:55:38.775Z,14.93
2022-11-30T02:58:06.785Z,15.77
2022-11-30T03:00:35.960Z,16.30
2022-11-30T03:03:03.884Z,16.50
2022-11-30T03:05:31.713Z,16.37
2022-11-30T03:07:59.721Z,16.20
2022-11-30T03:10:27.612Z,15.43
2022-11-30T03:12:59.251Z,15.17
2022-11-30T03:15:27.164Z,16.03
2022-11-30T03:17:56.392Z,14.43
2022-11-30T03:20:24.263Z,14.47
2022-11-30T03:22:52.075Z,15.40
2022-11-30T03:25:19.953Z,15.77
2022-11-30T03:27:47.805Z,14.27
2022-11-30T03:30:15.928Z,14.60
2022-11-30T03:32:43.775Z,14.60
2022-11-30T03:35:13.020Z,14.73
2022-11-30T03:37:40.849Z,14.50
2022-11-30T03:40:10.015Z,13.70
2022-11-30T03:42:37.842Z,14.03
2022-11-30T03:45:06.543Z,14.13
2022-11-30T03:47:34.384Z,12.83
2022-11-30T03:50:02.202Z,13.77
2022-11-30T03:52:31.435Z,12.33
2022-11-30T03:54:59.249Z,12.37
2022-11-30T03:57:27.080Z,13.23
2022-11-30T03:59:54.887Z,12.77
2022-11-30T04:02:22.796Z,13.50
2022-11-30T04:04:50.662Z,12.67
2022-11-30T04:07:18.590Z,11.70
2022-11-30T04:09:47.804Z,12.23
2022-11-30T04:12:15.622Z,11.03
2022-11-30T04:14:43.435Z,11.30
2022-11-30T04:17:11.255Z,11.27
2022-11-30T04:19:39.078Z,10.73
2022-11-30T04:22:07.176Z,12.17
2022-11-30T04:24:34.998Z,10.57
2022-11-30T04:27:04.273Z,12.37
2022-11-30T04:29:32.088Z,10.57
2022-11-30T04:31:59.914Z,11.57
2022-11-30T04:34:28.541Z,11.03
2022-11-30T04:37:00.261Z,11.87
2022-11-30T04:39:28.484Z,10.47
2022-11-30T04:41:56.517Z,11.07
2022-11-30T04:44:25.745Z,10.17
2022-11-30T04:46:53.864Z,10.73
2022-11-30T04:49:21.739Z,9.80
2022-11-30T04:51:49.578Z,9.43
2022-11-30T04:54:17.437Z,10.87
2022-11-30T04:56:45.302Z,11.40
2022-11-30T04:59:13.142Z,10.43
2022-11-30T05:01:42.353Z,10.83
2022-11-30T05:04:10.293Z,11.00
2022-11-30T05:06:38.157Z,9.33
2022-11-30T05:09:05.978Z,9.60
2022-11-30T05:11:33.816Z,9.73
2022-11-30T05:14:01.771Z,9.43
2022-11-30T05:16:29.682Z,9.17
2022-11-30T05:18:58.870Z,8.63
2022-11-30T05:21:26.748Z,9.50
2022-11-30T05:23:54.754Z,8.83
2022-11-30T05:26:22.572Z,9.87
2022-11-30T05:28:50.409Z,9.37
2022-11-30T05:31:18.309Z,9.60
2022-11-30T05:33:51.308Z,10.13
2022-11-30T05:36:21.290Z,9.90
2022-11-30T05:38:50.079Z,15.70
2022-11-30T05:41:17.925Z,14.77
2022-11-30T05:43:45.844Z,10.60
2022-11-30T05:46:13.829Z,10.80
2022-11-30T05:48:41.867Z,10.43
2022-11-30T05:51:12.008Z,9.43
2022-11-30T05:53:41.225Z,12.17
2022-11-30T05:56:10.365Z,11.53
2022-11-30T05:58:38.701Z,10.40
2022-11-30T06:01:07.251Z,10.37
2022-11-30T06:03:36.349Z,10.33
2022-11-30T06:06:04.208Z,9.40
2022-11-30T06:08:32.205Z,10.20
2022-11-30T06:11:02.958Z,10.10
2022-11-30T06:13:32.490Z,10.03
2022-11-30T06:16:00.559Z,10.03
2022-11-30T06:18:28.922Z,9.77
2022-11-30T06:21:00.530Z,9.87
2022-11-30T06:23:28.486Z,9.40
2022-11-30T06:25:56.366Z,11.03
2022-11-30T06:28:25.980Z,9.47
2022-11-30T06:30:53.862Z,9.57
2022-11-30T06:33:24.296Z,9.70
2022-11-30T06:35:52.371Z,9.80
2022-11-30T06:38:20.419Z,11.13
2022-11-30T06:40:48.342Z,10.77
2022-11-30T06:43:16.466Z,12.67
2022-11-30T06:45:45.924Z,13.90
2022-11-30T06:48:14.657Z,11.93
2022-11-30T06:50:48.398Z,14.23
2022-11-30T06:53:17.926Z,13.23
2022-11-30T06:55:45.798Z,11.63
2022-11-30T06:58:13.721Z,13.00
2022-11-30T07:00:42.769Z,12.00
2022-11-30T07:03:13.024Z,13.00
2022-11-30T07:05:43.861Z,12.80
2022-11-30T07:08:12.017Z,12.37
2022-11-30T07:10:44.394Z,12.07
2022-11-30T07:13:12.925Z,13.73
2022-11-30T07:15:41.209Z,12.67
2022-11-30T07:18:10.085Z,13.47
2022-11-30T07:20:40.289Z,13.53
2022-11-30T07:23:22.243Z,12.97
2022-11-30T07:26:10.452Z,13.87
2022-11-30T07:28:39.748Z,13.43
2022-11-30T07:31:26.053Z,11.50
2022-11-30T07:33:54.464Z,12.80
2022-11-30T07:36:26.476Z,13.17
2022-11-30T07:38:54.338Z,12.40
2022-11-30T07:41:22.217Z,15.70
2022-11-30T07:43:50.421Z,17.97
2022-11-30T07:46:19.198Z,13.23
2022-11-30T07:48:47.892Z,14.00
2022-11-30T07:51:18.222Z,12.57
2022-11-30T07:53:47.762Z,12.53
2022-11-30T07:56:17.699Z,11.07
2022-11-30T07:58:46.144Z,12.87
2022-11-30T08:01:16.367Z,12.70
2022-11-30T08:03:44.312Z,11.07
2022-11-30T08:06:15.231Z,11.83
2022-11-30T08:08:45.138Z,11.57
2022-11-30T08:11:17.820Z,11.97
2022-11-30T08:13:45.691Z,11.50
2022-11-30T08:16:15.349Z,12.00
2022-11-30T08:18:43.933Z,12.33
2022-11-30T08:21:13.900Z,12.77
2022-11-30T08:23:43.456Z,11.97
2022-11-30T08:26:14.888Z,11.90
2022-11-30T08:28:43.833Z,10.43
2022-11-30T08:31:13.735Z,9.40
2022-11-30T08:33:41.829Z,7.77
2022-11-30T08:36:11.454Z,8.23
2022-11-30T08:38:40.155Z,7.63
2022-11-30T08:41:09.005Z,8.57
2022-11-30T08:43:38.494Z,6.73
2022-11-30T08:46:34.747Z,5.97
2022-11-30T08:49:12.987Z,5.87
2022-11-30T08:52:15.519Z,4.80
2022-11-30T08:54:31.936Z,6.70
2022-11-30T08:57:00.895Z,4.33
2022-11-30T08:59:32.254Z,5.10
2022-11-30T09:02:00.104Z,4.47
2022-11-30T09:04:28.131Z,3.90
2022-11-30T09:06:59.138Z,4.03
2022-11-30T09:09:27.292Z,3.70
2022-11-30T09:11:55.161Z,4.20
2022-11-30T09:14:23.109Z,4.13
2022-11-30T09:16:53.680Z,4.83
2022-11-30T09:19:21.690Z,3.60
2022-11-30T09:21:51.965Z,2.87
2022-11-30T09:24:20.557Z,4.00
2022-11-30T09:26:48.917Z,4.30
2022-11-30T09:29:16.975Z,4.40
2022-11-30T09:31:44.816Z,3.73
2022-11-30T09:34:14.099Z,4.17
2022-11-30T09:36:42.076Z,4.47
2022-11-30T09:39:12.704Z,4.10
2022-11-30T09:42:18.682Z,3.90
2022-11-30T09:44:52.865Z,4.37
2022-11-30T09:47:34.450Z,4.67
2022-11-30T09:50:11.746Z,4.23
2022-11-30T09:52:44.187Z,3.83
2022-11-30T09:55:16.106Z,5.40
2022-11-30T09:57:47.394Z,5.43
2022-11-30T10:00:17.809Z,4.07
2022-11-30T10:02:46.725Z,5.07
2022-11-30T10:05:18.267Z,5.17
2022-11-30T10:07:59.313Z,4.93
2022-11-30T10:10:37.182Z,3.87
2022-11-30T10:13:17.292Z,4.50
2022-11-30T10:15:57.725Z,4.40
2022-11-30T10:18:37.909Z,4.63
2022-11-30T10:21:21.616Z,4.73
2022-11-30T10:24:07.911Z,4.60
2022-11-30T10:26:38.627Z,4.53
2022-11-30T10:29:18.231Z,3.73
2022-11-30T10:31:48.366Z,4.87
2022-11-30T10:34:21.628Z,5.03
2022-11-30T10:36:56.036Z,4.77
2022-11-30T10:39:29.896Z,4.77
2022-11-30T10:42:05.190Z,5.53
2022-11-30T10:44:39.845Z,5.80
2022-11-30T10:47:15.472Z,6.03
2022-11-30T10:49:47.510Z,5.97
2022-11-30T10:52:19.613Z,6.00
2022-11-30T10:54:47.795Z,5.87
2022-11-30T10:57:16.151Z,6.20
2022-11-30T10:59:48.555Z,6.30
2022-11-30T11:02:39.155Z,8.37
2022-11-30T11:05:19.603Z,7.40
2022-11-30T11:07:58.817Z,7.10
2022-11-30T11:10:34.852Z,7.03
2022-11-30T11:13:03.191Z,6.07
2022-11-30T11:15:33.272Z,6.27
2022-11-30T11:18:22.728Z,6.27
2022-11-30T11:21:05.993Z,7.70
2022-11-30T11:23:38.196Z,7.60
2022-11-30T11:26:07.774Z,8.23
2022-11-30T11:28:36.932Z,9.13
2022-11-30T11:31:19.014Z,8.30
2022-11-30T11:33:55.050Z,9.23
2022-11-30T11:36:29.193Z,8.10
2022-11-30T11:38:59.148Z,7.27
2022-11-30T11:41:31.410Z,6.80
2022-11-30T11:44:05.177Z,7.47
2022-11-30T11:46:36.361Z,6.67
2022-11-30T11:49:06.163Z,6.13
2022-11-30T11:51:35.725Z,6.40
2022-11-30T11:54:15.335Z,6.83
2022-11-30T11:56:43.395Z,4.80
2022-11-30T11:59:16.321Z,7.17
2022-11-30T12:01:56.601Z,7.70
2022-11-30T12:04:41.352Z,7.37
2022-11-30T12:07:18.536Z,7.80
2022-11-30T12:09:58.158Z,7.47
2022-11-30T12:12:26.109Z,3.37
2022-11-30T12:14:56.057Z,2.60
2022-11-30T12:17:43.614Z,2.83
2022-11-30T12:20:20.477Z,2.00
2022-11-30T12:23:12.734Z,2.40
2022-11-30T12:25:52.039Z,2.80
2022-11-30T12:28:27.743Z,2.67
2022-11-30T12:31:10.640Z,2.90
2022-11-30T12:33:55.539Z,2.97
2022-11-30T12:36:30.360Z,2.60
2022-11-30T12:39:06.418Z,2.70
2022-11-30T12:41:41.956Z,2.73
2022-11-30T12:44:28.626Z,2.67
2022-11-30T12:47:03.313Z,2.17
2022-11-30T12:49:46.012Z,2.20
2022-11-30T12:52:28.868Z,2.40
2022-11-30T12:55:04.951Z,2.70
2022-11-30T12:57:38.384Z,2.80
2022-11-30T13:00:10.137Z,2.43
2022-11-30T13:03:01.853Z,2.67
2022-11-30T13:05:34.853Z,2.83
2022-11-30T13:08:08.894Z,2.90
2022-11-30T13:10:42.284Z,3.47
2022-11-30T13:13:17.503Z,3.20
2022-11-30T13:15:46.777Z,3.03
2022-11-30T13:18:18.898Z,3.17
2022-11-30T13:20:52.564Z,2.60
2022-11-30T13:23:31.394Z,3.43
2022-11-30T13:26:08.885Z,2.37
2022-11-30T13:28:54.095Z,2.40
2022-11-30T13:31:25.443Z,2.00
2022-11-30T13:33:59.518Z,1.50
2022-11-30T13:36:39.421Z,1.37
2022-11-30T13:39:33.820Z,1.97
2022-11-30T13:42:34.286Z,1.80
2022-11-30T13:45:22.983Z,1.97
2022-11-30T13:47:52.627Z,3.73
2022-11-30T13:50:26.192Z,3.07
2022-11-30T13:53:34.281Z,2.20
2022-11-30T13:56:24.947Z,2.27
2022-11-30T13:59:30.351Z,1.60
2022-11-30T14:02:31.615Z,1.50
2022-11-30T14:05:26.131Z,1.90
2022-11-30T14:08:17.063Z,2.00
2022-11-30T14:10:46.285Z,2.07
2022-11-30T14:13:32.383Z,2.00
2022-11-30T14:16:02.139Z,3.10
2022-11-30T14:18:43.060Z,3.03
2022-11-30T14:21:23.620Z,2.30
2022-11-30T14:23:59.688Z,1.80
2022-11-30T14:26:32.871Z,2.40
2022-11-30T14:29:16.708Z,2.00
2022-11-30T14:31:53.771Z,2.67
2022-11-30T14:34:27.093Z,2.00
2022-11-30T14:37:00.795Z,2.63
2022-11-30T14:39:33.799Z,1.80
2022-11-30T14:42:02.135Z,1.47
2022-11-30T14:44:34.628Z,1.60
2022-11-30T14:47:14.016Z,1.87
2022-11-30T14:49:46.607Z,2.17
2022-11-30T14:52:22.367Z,3.10
2022-11-30T14:54:57.383Z,3.03
2022-11-30T14:57:32.227Z,2.43
2022-11-30T15:00:00.236Z,2.20
2022-11-30T15:02:34.184Z,2.40
2022-11-30T15:05:02.701Z,2.30
2022-11-30T15:07:31.920Z,2.47
2022-11-30T15:10:05.261Z,2.27
2022-11-30T15:12:34.444Z,3.30
2022-11-30T15:15:03.835Z,2.53
2022-11-30T15:17:31.687Z,3.43
2022-11-30T15:19:59.592Z,3.43
2022-11-30T15:22:36.260Z,3.70
2022-11-30T15:25:04.253Z,3.20
2022-11-30T15:27:32.316Z,3.03
2022-11-30T15:30:01.864Z,3.83
2022-11-30T15:32:30.047Z,4.23
2022-11-30T15:35:00.762Z,3.83
2022-11-30T15:37:31.093Z,3.00
2022-11-30T15:40:03.195Z,3.33
2022-11-30T15:42:39.741Z,3.53
2022-11-30T15:45:16.829Z,3.50
2022-11-30T15:47:44.747Z,5.10
2022-11-30T15:50:35.761Z,4.43
2022-11-30T15:53:05.205Z,3.83
2022-11-30T15:55:44.699Z,3.30
2022-11-30T15:58:28.215Z,4.90
2022-11-30T16:01:09.172Z,4.00
2022-11-30T16:04:02.782Z,3.43
2022-11-30T16:06:33.009Z,3.93
2022-11-30T16:09:18.580Z,4.37
2022-11-30T16:11:47.625Z,4.57
2022-11-30T16:14:16.714Z,4.53
2022-11-30T16:16:45.284Z,3.80
2022-11-30T16:19:14.554Z,4.23
2022-11-30T16:21:42.798Z,5.00
2022-11-30T16:24:14.090Z,5.83
2022-11-30T16:26:57.423Z,6.10
2022-11-30T16:29:25.253Z,4.10
2022-11-30T16:31:53.113Z,3.87
2022-11-30T16:34:22.300Z,4.60
2022-11-30T16:36:50.118Z,3.67
2022-11-30T16:39:17.917Z,4.93
2022-11-30T16:41:45.748Z,4.43
2022-11-30T16:44:15.348Z,4.93
2022-11-30T16:46:43.289Z,5.27
2022-11-30T16:49:11.111Z,5.83
2022-11-30T16:51:41.879Z,5.07
2022-11-30T16:54:12.331Z,4.83
2022-11-30T16:56:40.192Z,5.40
2022-11-30T16:59:13.412Z,6.17
2022-11-30T17:01:47.127Z,9.67
2022-11-30T17:04:19.960Z,9.17
2022-11-30T17:06:51.181Z,9.13
2022-11-30T17:09:21.912Z,6.63
2022-11-30T17:11:51.347Z,5.30
2022-11-30T17:14:20.277Z,6.80
2022-11-30T17:16:48.191Z,5.27
2022-11-30T17:19:16.083Z,6.43
2022-11-30T17:21:44.691Z,5.70
2022-11-30T17:24:14.168Z,5.60
2022-11-30T17:26:42.087Z,5.40
2022-11-30T17:29:09.995Z,6.10
2022-11-30T17:31:37.958Z,5.80
2022-11-30T17:34:06.722Z,5.67
2022-11-30T17:36:34.570Z,5.27
2022-11-30T17:39:06.486Z,6.07
2022-11-30T17:41:35.940Z,6.90
2022-11-30T17:44:03.985Z,4.57
2022-11-30T17:46:31.870Z,6.63
2022-11-30T17:48:59.858Z,6.07
2022-11-30T17:51:27.953Z,5.20
2022-11-30T17:53:55.872Z,8.90
2022-11-30T17:56:24.170Z,4.30
2022-11-30T17:58:53.392Z,6.73
2022-11-30T18:01:23.100Z,4.20
2022-11-30T18:03:51.767Z,6.23
2022-11-30T18:06:20.270Z,7.53
2022-11-30T18:08:48.215Z,7.17
2022-11-30T18:11:18.920Z,4.97
2022-11-30T18:13:47.483Z,4.93
2022-11-30T18:16:19.117Z,5.27
2022-11-30T18:18:48.476Z,5.90
2022-11-30T18:21:18.512Z,6.90
2022-11-30T18:23:46.593Z,8.33
2022-11-30T18:26:16.492Z,10.47
2022-11-30T18:28:44.874Z,12.40
2022-11-30T18:31:13.225Z,10.10
2022-11-30T18:33:42.680Z,9.63
2022-11-30T18:36:10.777Z,7.10
2022-11-30T18:38:39.062Z,7.33
2022-11-30T18:41:07.531Z,8.93
2022-11-30T18:43:35.972Z,8.63
2022-11-30T18:46:05.052Z,9.13
2022-11-30T18:48:33.200Z,11.30
2022-11-30T18:51:10.977Z,10.47
2022-11-30T18:53:38.857Z,12.93
2022-11-30T18:56:11.456Z,10.67
2022-11-30T18:58:39.339Z,8.13
2022-11-30T19:01:09.076Z,6.70
2022-11-30T19:03:37.258Z,7.97
2022-11-30T19:06:07.910Z,6.60
2022-11-30T19:08:36.149Z,7.40
2022-11-30T19:11:05.514Z,6.67
2022-11-30T19:13:34.241Z,6.40
2022-11-30T19:16:03.547Z,5.93
2022-11-30T19:18:31.671Z,8.40
2022-11-30T19:20:59.975Z,7.30
2022-11-30T19:23:29.328Z,7.20
2022-11-30T19:26:01.575Z,7.67
2022-11-30T19:28:30.877Z,7.43
2022-11-30T19:30:58.978Z,7.07
2022-11-30T19:33:27.066Z,8.30
2022-11-30T19:36:00.303Z,7.90
2022-11-30T19:38:29.512Z,9.40
2022-11-30T19:40:57.458Z,10.13
2022-11-30T19:43:25.384Z,10.67
2022-11-30T19:45:53.342Z,10.63
2022-11-30T19:48:21.215Z,11.43
2022-11-30T19:50:49.030Z,11.53
2022-11-30T19:53:16.829Z,12.20
2022-11-30T19:55:45.990Z,11.80
2022-11-30T19:58:13.812Z,12.87
2022-11-30T20:00:41.636Z,13.23
2022-11-30T20:03:10.458Z,13.63
2022-11-30T20:05:38.711Z,13.13
2022-11-30T20:08:07.314Z,12.67
2022-11-30T20:10:35.207Z,12.37
2022-11-30T20:13:04.511Z,11.83
2022-11-30T20:15:32.409Z,12.90
2022-11-30T20:18:00.714Z,12.43
2022-11-30T20:20:28.739Z,11.90
2022-11-30T20:22:56.587Z,11.03
2022-11-30T20:25:24.490Z,11.10
2022-11-30T20:27:52.389Z,11.67
2022-11-30T20:30:21.754Z,12.60
2022-11-30T20:32:49.780Z,10.93
2022-11-30T20:35:17.960Z,11.20
2022-11-30T20:37:45.800Z,11.57
2022-11-30T20:40:13.903Z,10.90
2022-11-30T20:42:41.738Z,10.77
2022-11-30T20:45:09.878Z,11.47
2022-11-30T20:47:39.049Z,12.83
2022-11-30T20:50:08.131Z,10.47
2022-11-30T20:52:36.057Z,10.03
2022-11-30T20:55:03.893Z,8.97
2022-11-30T20:57:31.765Z,8.70
2022-11-30T20:59:59.604Z,9.47
2022-11-30T21:02:27.522Z,8.97
2022-11-30T21:04:56.793Z,9.37
2022-11-30T21:07:24.953Z,9.60
2022-11-30T21:09:52.900Z,9.37
2022-11-30T21:12:20.767Z,8.47
2022-11-30T21:14:48.960Z,9.63
2022-11-30T21:17:17.016Z,10.47
2022-11-30T21:19:44.837Z,9.37
2022-11-30T21:22:14.036Z,9.27
2022-11-30T21:24:41.938Z,9.97
2022-11-30T21:27:09.789Z,11.00
2022-11-30T21:29:37.676Z,10.93
2022-11-30T21:32:05.635Z,11.27
2022-11-30T21:34:33.789Z,10.77
2022-11-30T21:37:01.695Z,8.30
2022-11-30T21:39:31.064Z,10.20
2022-11-30T21:41:58.936Z,11.20
2022-11-30T21:44:26.767Z,11.17
2022-11-30T21:46:54.659Z,11.23
2022-11-30T21:49:23.594Z,11.93
2022-11-30T21:51:51.414Z,12.20
2022-11-30T21:54:19.381Z,12.17
2022-11-30T21:56:52.246Z,11.17
2022-11-30T21:59:20.242Z,12.63
2022-11-30T22:01:48.075Z,12.87
2022-11-30T22:04:16.828Z,12.47
2022-11-30T22:06:45.343Z,11.87
2022-11-30T22:09:17.854Z,12.50
2022-11-30T22:11:46.598Z,12.00
2022-11-30T22:14:17.225Z,13.33
2022-11-30T22:16:45.672Z,12.93
2022-11-30T22:19:13.574Z,13.27
2022-11-30T22:21:46.770Z,13.00
2022-11-30T22:24:17.468Z,13.57
2022-11-30T22:26:46.502Z,14.53
2022-11-30T22:29:17.868Z,13.73
2022-11-30T22:31:48.556Z,14.03
2022-11-30T22:34:17.210Z,13.43
2022-11-30T22:36:46.233Z,13.57
2022-11-30T22:39:16.602Z,13.90
2022-11-30T22:41:48.691Z,14.80
2022-11-30T22:44:22.202Z,14.47
2022-11-30T22:46:50.287Z,14.73
2022-11-30T22:49:21.733Z,13.53
2022-11-30T22:51:50.547Z,14.43
2022-11-30T22:54:18.880Z,13.90
2022-11-30T22:56:46.967Z,14.63
2022-11-30T22:59:15.901Z,14.77
2022-11-30T23:01:46.526Z,13.43
2022-11-30T23:04:16.933Z,13.67
2022-11-30T23:06:45.900Z,15.97
2022-11-30T23:09:16.199Z,14.90
2022-11-30T23:11:44.565Z,14.23
2022-11-30T23:14:12.808Z,13.97
2022-11-30T23:16:41.083Z,13.83
2022-11-30T23:19:12.583Z,14.57
2022-11-30T23:21:44.661Z,12.47
2022-11-30T23:24:20.192Z,13.73
2022-11-30T23:26:48.401Z,14.93
2022-11-30T23:29:18.129Z,13.07
2022-11-30T23:31:47.117Z,13.60
2022-11-30T23:34:18.693Z,12.67
2022-11-30T23:36:46.684Z,13.83
2022-11-30T23:39:16.390Z,14.33
2022-11-30T23:41:44.259Z,13.70
2022-11-30T23:44:12.704Z,13.00
2022-11-30T23:46:41.205Z,12.63
2022-11-30T23:49:09.147Z,10.97
2022-11-30T23:51:38.454Z,13.07
2022-11-30T23:54:06.603Z,14.97
2022-11-30T23:56:34.488Z,13.87
2022-11-30T23:59:02.291Z,13.53
